Terminal Aerodrome Forecast
Issued by NWS

Current Version | Previous Version | Graphics & Text | Print | Product List | Glossary On
Versions: 1 2 3 4 5 6 7 8 9 10 11 12 13 14 15 16 17 18
000
FTUS41 KPBZ 292115 AAA
TAFMGW
TAF AMD
KMGW 292115Z 2921/3018 16003KT P6SM OVC100
     FM292300 21008KT P6SM -SHRA BKN050
      TEMPO 2923/3001 3SM SHRA BKN030
     FM300600 13008KT P6SM -SHRA SCT020 BKN040
     FM301200 21010KT P6SM BKN025=

USA.gov is the U.S. government's official web portal to all federal, state and local government web resources and services.